KFKL/FKL METAR and TAF weather

Enter ICAO airport designator
Station Type Date Time Source
KFKL METAR 2021/01/20 22:56 UTC NOAA

KFKL 202256Z AUTO 23004KT 10SM BKN027 M07/M11 A3002 RMK AO2 SNE07 SLP189 P0000 T10671111 FZRANO


Station Type Date Time Source
KFKL Decoded METAR 2021/01/20 22:56 UTC NOAA

Franklin, Venango Regional Airport, PA, United States (KFKL) 41-23N 079-52W
Jan 20, 2021 - 05:56 PM EST / 2021.01.20 2256 UTC
Wind: from the SW (230 degrees) at 5 MPH (4 KT):0
Visibility: 10 mile(s):0
Sky conditions: mostly cloudy
Precipitation last hour: A trace
Temperature: 19.9 F (-6.7 C)
Windchill: 12 F (-11 C):1
Dew Point: 12.0 F (-11.1 C)
Relative Humidity: 70%
Pressure (altimeter): 30.02 in. Hg (1016 hPa)
ob: KFKL 202256Z AUTO 23004KT 10SM BKN027 M07/M11 A3002 RMK AO2 SNE07 SLP189 P0000 T10671111 FZRANO
cycle: 23

Station Type Date Time Source
KFKL TAF 2021/01/20 18:39 UTC NOAA

TAF KFKL 201736Z 2018/2118 29009G16KT P6SM -SHSN BKN025
FM202200 22008KT P6SM BKN035
FM210300 21011G19KT P6SM SCT035 BKN100
FM211000 22011G19KT P6SM VCSH OVC025
FM211400 24013G21KT P6SM OVC020

Example: see airport list